sensor_id;sensor_type;location;lat;lon;timestamp;temperature;humidity
27940;DHT22;15275;51.716;14.324;2023-07-31T00:00:29;21.40;77.80
27940;DHT22;15275;51.716;14.324;2023-07-31T00:02:55;21.40;77.70
27940;DHT22;15275;51.716;14.324;2023-07-31T00:05:21;21.40;77.70
27940;DHT22;15275;51.716;14.324;2023-07-31T00:07:47;21.40;77.70
27940;DHT22;15275;51.716;14.324;2023-07-31T00:10:13;21.30;77.70
27940;DHT22;15275;51.716;14.324;2023-07-31T00:12:40;21.30;77.70
27940;DHT22;15275;51.716;14.324;2023-07-31T00:15:08;21.30;77.60
27940;DHT22;15275;51.716;14.324;2023-07-31T00:17:34;21.20;77.70
27940;DHT22;15275;51.716;14.324;2023-07-31T00:20:00;21.20;77.70
27940;DHT22;15275;51.716;14.324;2023-07-31T00:22:26;21.20;77.90
27940;DHT22;15275;51.716;14.324;2023-07-31T00:24:52;21.20;77.80
27940;DHT22;15275;51.716;14.324;2023-07-31T00:27:17;21.10;77.90
27940;DHT22;15275;51.716;14.324;2023-07-31T00:29:43;21.10;78.00
27940;DHT22;15275;51.716;14.324;2023-07-31T00:32:09;21.10;77.90
27940;DHT22;15275;51.716;14.324;2023-07-31T00:34:35;21.00;77.90
27940;DHT22;15275;51.716;14.324;2023-07-31T00:37:00;21.00;78.00
27940;DHT22;15275;51.716;14.324;2023-07-31T00:39:26;21.00;78.00
27940;DHT22;15275;51.716;14.324;2023-07-31T00:41:52;21.00;77.90
27940;DHT22;15275;51.716;14.324;2023-07-31T00:44:18;20.90;77.90
27940;DHT22;15275;51.716;14.324;2023-07-31T00:46:44;20.90;78.00
27940;DHT22;15275;51.716;14.324;2023-07-31T00:49:10;20.90;78.00
27940;DHT22;15275;51.716;14.324;2023-07-31T00:51:36;20.90;78.00
27940;DHT22;15275;51.716;14.324;2023-07-31T00:54:03;20.90;78.00
27940;DHT22;15275;51.716;14.324;2023-07-31T00:56:29;20.80;77.90
27940;DHT22;15275;51.716;14.324;2023-07-31T00:58:55;20.80;78.00
27940;DHT22;15275;51.716;14.324;2023-07-31T01:01:21;20.80;78.00
27940;DHT22;15275;51.716;14.324;2023-07-31T01:03:48;20.80;78.00
27940;DHT22;15275;51.716;14.324;2023-07-31T01:06:44;20.70;78.00
27940;DHT22;15275;51.716;14.324;2023-07-31T01:12:01;20.70;78.10
27940;DHT22;15275;51.716;14.324;2023-07-31T01:14:28;20.70;77.60
27940;DHT22;15275;51.716;14.324;2023-07-31T01:16:55;20.70;78.10
27940;DHT22;15275;51.716;14.324;2023-07-31T01:19:25;20.70;78.10
27940;DHT22;15275;51.716;14.324;2023-07-31T01:27:54;20.60;77.30
27940;DHT22;15275;51.716;14.324;2023-07-31T01:30:32;20.60;77.10
27940;DHT22;15275;51.716;14.324;2023-07-31T01:33:01;20.60;77.80
27940;DHT22;15275;51.716;14.324;2023-07-31T01:35:33;20.60;78.00
27940;DHT22;15275;51.716;14.324;2023-07-31T01:37:59;20.60;78.00
27940;DHT22;15275;51.716;14.324;2023-07-31T01:40:25;20.60;78.00
27940;DHT22;15275;51.716;14.324;2023-07-31T01:42:51;20.70;77.90
27940;DHT22;15275;51.716;14.324;2023-07-31T01:45:17;20.70;77.90
27940;DHT22;15275;51.716;14.324;2023-07-31T01:47:43;20.70;77.90
27940;DHT22;15275;51.716;14.324;2023-07-31T01:50:09;20.70;77.90
27940;DHT22;15275;51.716;14.324;2023-07-31T01:52:35;20.70;77.90
27940;DHT22;15275;51.716;14.324;2023-07-31T01:55:01;20.80;77.90
27940;DHT22;15275;51.716;14.324;2023-07-31T01:57:27;20.80;77.80
27940;DHT22;15275;51.716;14.324;2023-07-31T01:59:52;20.80;77.80
27940;DHT22;15275;51.716;14.324;2023-07-31T02:02:19;20.80;77.70
27940;DHT22;15275;51.716;14.324;2023-07-31T02:04:45;20.90;77.70
27940;DHT22;15275;51.716;14.324;2023-07-31T02:07:11;20.90;77.60
27940;DHT22;15275;51.716;14.324;2023-07-31T02:09:37;20.90;77.50
27940;DHT22;15275;51.716;14.324;2023-07-31T02:12:02;20.90;77.50
27940;DHT22;15275;51.716;14.324;2023-07-31T02:14:28;20.90;77.50
27940;DHT22;15275;51.716;14.324;2023-07-31T02:16:54;21.00;77.30
27940;DHT22;15275;51.716;14.324;2023-07-31T02:19:20;21.00;77.30
27940;DHT22;15275;51.716;14.324;2023-07-31T02:21:46;21.00;77.10
27940;DHT22;15275;51.716;14.324;2023-07-31T02:24:11;21.00;77.00
27940;DHT22;15275;51.716;14.324;2023-07-31T02:26:37;21.10;76.80
27940;DHT22;15275;51.716;14.324;2023-07-31T02:29:03;21.10;77.00
27940;DHT22;15275;51.716;14.324;2023-07-31T02:31:29;21.10;76.90
27940;DHT22;15275;51.716;14.324;2023-07-31T02:33:55;21.10;76.90
27940;DHT22;15275;51.716;14.324;2023-07-31T02:36:20;21.20;76.80
27940;DHT22;15275;51.716;14.324;2023-07-31T02:38:46;21.20;76.80
27940;DHT22;15275;51.716;14.324;2023-07-31T02:41:12;21.20;76.60
27940;DHT22;15275;51.716;14.324;2023-07-31T02:43:37;21.20;76.40
27940;DHT22;15275;51.716;14.324;2023-07-31T02:46:03;21.20;76.30
27940;DHT22;15275;51.716;14.324;2023-07-31T02:48:29;21.20;76.20
27940;DHT22;15275;51.716;14.324;2023-07-31T02:50:55;21.20;76.10
27940;DHT22;15275;51.716;14.324;2023-07-31T02:53:20;21.20;76.00
27940;DHT22;15275;51.716;14.324;2023-07-31T02:55:48;21.20;76.10
27940;DHT22;15275;51.716;14.324;2023-07-31T02:58:14;21.20;75.90
27940;DHT22;15275;51.716;14.324;2023-07-31T03:00:44;21.20;75.90
27940;DHT22;15275;51.716;14.324;2023-07-31T03:03:10;21.20;75.40
27940;DHT22;15275;51.716;14.324;2023-07-31T03:05:36;21.20;75.90
27940;DHT22;15275;51.716;14.324;2023-07-31T03:08:02;21.10;75.90
27940;DHT22;15275;51.716;14.324;2023-07-31T03:10:28;21.10;75.90
27940;DHT22;15275;51.716;14.324;2023-07-31T03:12:54;21.10;75.90
27940;DHT22;15275;51.716;14.324;2023-07-31T03:15:19;21.10;76.10
27940;DHT22;15275;51.716;14.324;2023-07-31T03:17:45;21.10;75.90
27940;DHT22;15275;51.716;14.324;2023-07-31T03:20:11;21.10;75.90
27940;DHT22;15275;51.716;14.324;2023-07-31T03:22:37;21.10;75.90
27940;DHT22;15275;51.716;14.324;2023-07-31T03:25:04;21.10;75.90
27940;DHT22;15275;51.716;14.324;2023-07-31T03:27:30;21.10;75.60
27940;DHT22;15275;51.716;14.324;2023-07-31T03:29:55;21.00;75.80
27940;DHT22;15275;51.716;14.324;2023-07-31T03:32:21;21.00;75.90
27940;DHT22;15275;51.716;14.324;2023-07-31T03:34:47;21.00;75.90
27940;DHT22;15275;51.716;14.324;2023-07-31T03:37:13;21.00;75.90
27940;DHT22;15275;51.716;14.324;2023-07-31T03:39:38;21.00;75.90
27940;DHT22;15275;51.716;14.324;2023-07-31T03:42:04;21.00;75.80
27940;DHT22;15275;51.716;14.324;2023-07-31T03:44:30;21.00;75.60
27940;DHT22;15275;51.716;14.324;2023-07-31T03:46:56;21.00;75.80
27940;DHT22;15275;51.716;14.324;2023-07-31T03:49:22;21.00;75.90
27940;DHT22;15275;51.716;14.324;2023-07-31T03:51:49;21.00;75.90
27940;DHT22;15275;51.716;14.324;2023-07-31T03:54:15;21.00;75.90
27940;DHT22;15275;51.716;14.324;2023-07-31T03:56:41;21.10;75.80
27940;DHT22;15275;51.716;14.324;2023-07-31T03:59:07;21.10;75.60
27940;DHT22;15275;51.716;14.324;2023-07-31T04:01:33;21.10;75.60
27940;DHT22;15275;51.716;14.324;2023-07-31T04:03:59;21.20;75.40
27940;DHT22;15275;51.716;14.324;2023-07-31T04:06:24;21.20;75.60
27940;DHT22;15275;51.716;14.324;2023-07-31T04:08:50;21.20;75.40
27940;DHT22;15275;51.716;14.324;2023-07-31T04:11:16;21.20;75.30
27940;DHT22;15275;51.716;14.324;2023-07-31T04:13:42;21.20;75.20
27940;DHT22;15275;51.716;14.324;2023-07-31T04:16:08;21.30;75.30
27940;DHT22;15275;51.716;14.324;2023-07-31T04:18:34;21.30;75.30
27940;DHT22;15275;51.716;14.324;2023-07-31T04:21:00;21.30;75.20
27940;DHT22;15275;51.716;14.324;2023-07-31T04:23:26;21.30;75.40
27940;DHT22;15275;51.716;14.324;2023-07-31T04:25:52;21.40;75.30
27940;DHT22;15275;51.716;14.324;2023-07-31T04:28:18;21.40;75.30
27940;DHT22;15275;51.716;14.324;2023-07-31T04:30:44;21.40;75.30
27940;DHT22;15275;51.716;14.324;2023-07-31T04:33:09;21.50;75.10
27940;DHT22;15275;51.716;14.324;2023-07-31T04:35:35;21.50;75.20
27940;DHT22;15275;51.716;14.324;2023-07-31T04:38:01;21.60;75.10
27940;DHT22;15275;51.716;14.324;2023-07-31T04:40:27;21.60;75.00
27940;DHT22;15275;51.716;14.324;2023-07-31T04:42:53;21.60;75.00
27940;DHT22;15275;51.716;14.324;2023-07-31T04:45:18;21.60;74.90
27940;DHT22;15275;51.716;14.324;2023-07-31T04:47:44;21.70;74.90
27940;DHT22;15275;51.716;14.324;2023-07-31T04:50:10;21.70;74.90
27940;DHT22;15275;51.716;14.324;2023-07-31T04:52:36;21.70;74.80
27940;DHT22;15275;51.716;14.324;2023-07-31T04:55:02;21.70;74.90
27940;DHT22;15275;51.716;14.324;2023-07-31T04:57:28;21.80;75.10
27940;DHT22;15275;51.716;14.324;2023-07-31T04:59:54;21.80;75.00
27940;DHT22;15275;51.716;14.324;2023-07-31T05:02:19;21.80;75.00
27940;DHT22;15275;51.716;14.324;2023-07-31T05:04:46;21.70;75.10
27940;DHT22;15275;51.716;14.324;2023-07-31T05:07:12;21.70;75.20
27940;DHT22;15275;51.716;14.324;2023-07-31T05:09:37;21.70;75.30
27940;DHT22;15275;51.716;14.324;2023-07-31T05:12:05;21.70;75.30
27940;DHT22;15275;51.716;14.324;2023-07-31T05:14:31;21.70;75.60
27940;DHT22;15275;51.716;14.324;2023-07-31T05:16:57;21.60;75.90
27940;DHT22;15275;51.716;14.324;2023-07-31T05:19:23;21.60;76.10
27940;DHT22;15275;51.716;14.324;2023-07-31T05:21:48;21.60;76.30
27940;DHT22;15275;51.716;14.324;2023-07-31T05:24:14;21.60;76.40
27940;DHT22;15275;51.716;14.324;2023-07-31T05:26:40;21.60;76.50
27940;DHT22;15275;51.716;14.324;2023-07-31T05:29:05;21.70;76.50
27940;DHT22;15275;51.716;14.324;2023-07-31T05:31:31;21.70;76.60
27940;DHT22;15275;51.716;14.324;2023-07-31T05:33:58;21.70;76.60
27940;DHT22;15275;51.716;14.324;2023-07-31T05:36:24;21.80;76.70
27940;DHT22;15275;51.716;14.324;2023-07-31T05:38:49;21.90;76.80
27940;DHT22;15275;51.716;14.324;2023-07-31T05:41:15;21.90;76.70
27940;DHT22;15275;51.716;14.324;2023-07-31T05:43:41;22.00;76.60
27940;DHT22;15275;51.716;14.324;2023-07-31T05:46:08;22.00;76.40
27940;DHT22;15275;51.716;14.324;2023-07-31T05:48:35;22.10;76.40
27940;DHT22;15275;51.716;14.324;2023-07-31T05:51:00;22.20;76.40
27940;DHT22;15275;51.716;14.324;2023-07-31T05:53:26;22.20;76.50
27940;DHT22;15275;51.716;14.324;2023-07-31T05:55:52;22.30;76.30
27940;DHT22;15275;51.716;14.324;2023-07-31T05:58:18;22.30;76.20
27940;DHT22;15275;51.716;14.324;2023-07-31T06:00:43;22.40;76.10
27940;DHT22;15275;51.716;14.324;2023-07-31T06:03:09;22.40;76.00
27940;DHT22;15275;51.716;14.324;2023-07-31T06:05:35;22.40;75.90
27940;DHT22;15275;51.716;14.324;2023-07-31T06:08:01;22.50;75.70
27940;DHT22;15275;51.716;14.324;2023-07-31T06:10:27;22.50;75.50
27940;DHT22;15275;51.716;14.324;2023-07-31T06:12:53;22.50;75.70
27940;DHT22;15275;51.716;14.324;2023-07-31T06:15:19;22.50;75.80
27940;DHT22;15275;51.716;14.324;2023-07-31T06:17:45;22.50;75.70
27940;DHT22;15275;51.716;14.324;2023-07-31T06:20:11;22.60;75.40
27940;DHT22;15275;51.716;14.324;2023-07-31T06:22:37;22.60;75.60
27940;DHT22;15275;51.716;14.324;2023-07-31T06:25:03;22.60;75.60
27940;DHT22;15275;51.716;14.324;2023-07-31T06:27:29;22.60;75.70
27940;DHT22;15275;51.716;14.324;2023-07-31T06:29:55;22.60;75.60
27940;DHT22;15275;51.716;14.324;2023-07-31T06:32:21;22.60;75.60
27940;DHT22;15275;51.716;14.324;2023-07-31T06:34:47;22.60;75.50
27940;DHT22;15275;51.716;14.324;2023-07-31T06:37:13;22.60;75.50
27940;DHT22;15275;51.716;14.324;2023-07-31T06:39:38;22.60;75.20
27940;DHT22;15275;51.716;14.324;2023-07-31T06:42:04;22.60;75.50
27940;DHT22;15275;51.716;14.324;2023-07-31T06:44:30;22.60;75.70
27940;DHT22;15275;51.716;14.324;2023-07-31T06:46:56;22.60;75.60
27940;DHT22;15275;51.716;14.324;2023-07-31T06:49:22;22.60;75.40
27940;DHT22;15275;51.716;14.324;2023-07-31T06:51:47;22.60;75.60
27940;DHT22;15275;51.716;14.324;2023-07-31T06:54:13;22.60;75.60
27940;DHT22;15275;51.716;14.324;2023-07-31T06:56:39;22.70;75.60
27940;DHT22;15275;51.716;14.324;2023-07-31T06:59:05;22.70;75.70
27940;DHT22;15275;51.716;14.324;2023-07-31T07:01:30;22.70;75.50
27940;DHT22;15275;51.716;14.324;2023-07-31T07:03:56;22.70;75.60
27940;DHT22;15275;51.716;14.324;2023-07-31T07:06:22;22.70;75.80
27940;DHT22;15275;51.716;14.324;2023-07-31T07:08:48;22.70;75.80
27940;DHT22;15275;51.716;14.324;2023-07-31T07:11:14;22.70;75.90
27940;DHT22;15275;51.716;14.324;2023-07-31T07:13:40;22.60;76.30
27940;DHT22;15275;51.716;14.324;2023-07-31T07:16:06;22.60;76.40
27940;DHT22;15275;51.716;14.324;2023-07-31T07:18:32;22.60;76.50
27940;DHT22;15275;51.716;14.324;2023-07-31T07:20:57;22.60;76.70
27940;DHT22;15275;51.716;14.324;2023-07-31T07:23:23;22.60;76.90
27940;DHT22;15275;51.716;14.324;2023-07-31T07:25:50;22.60;77.00
27940;DHT22;15275;51.716;14.324;2023-07-31T07:28:16;22.60;77.20
27940;DHT22;15275;51.716;14.324;2023-07-31T07:30:42;22.50;77.20
27940;DHT22;15275;51.716;14.324;2023-07-31T07:33:08;22.50;77.20
27940;DHT22;15275;51.716;14.324;2023-07-31T07:35:34;22.40;77.30
27940;DHT22;15275;51.716;14.324;2023-07-31T07:38:02;22.40;77.60
27940;DHT22;15275;51.716;14.324;2023-07-31T07:40:28;22.40;78.10
27940;DHT22;15275;51.716;14.324;2023-07-31T07:42:54;22.40;78.30
27940;DHT22;15275;51.716;14.324;2023-07-31T07:45:20;22.40;78.50
27940;DHT22;15275;51.716;14.324;2023-07-31T07:47:46;22.40;78.40
27940;DHT22;15275;51.716;14.324;2023-07-31T07:50:11;22.40;78.60
27940;DHT22;15275;51.716;14.324;2023-07-31T07:52:37;22.40;78.70
27940;DHT22;15275;51.716;14.324;2023-07-31T07:55:03;22.50;78.70
27940;DHT22;15275;51.716;14.324;2023-07-31T07:57:29;22.50;78.60
27940;DHT22;15275;51.716;14.324;2023-07-31T07:59:55;22.50;78.80
27940;DHT22;15275;51.716;14.324;2023-07-31T08:02:22;22.50;78.80
27940;DHT22;15275;51.716;14.324;2023-07-31T08:04:48;22.50;78.80
27940;DHT22;15275;51.716;14.324;2023-07-31T08:07:14;22.60;78.60
27940;DHT22;15275;51.716;14.324;2023-07-31T08:09:40;22.60;78.50
27940;DHT22;15275;51.716;14.324;2023-07-31T08:12:06;22.60;78.40
27940;DHT22;15275;51.716;14.324;2023-07-31T08:14:32;22.60;78.20
27940;DHT22;15275;51.716;14.324;2023-07-31T08:16:58;22.60;78.10
27940;DHT22;15275;51.716;14.324;2023-07-31T08:19:24;22.60;78.30
27940;DHT22;15275;51.716;14.324;2023-07-31T08:21:50;22.60;78.40
27940;DHT22;15275;51.716;14.324;2023-07-31T08:24:16;22.70;78.50
27940;DHT22;15275;51.716;14.324;2023-07-31T08:26:42;22.70;78.40
27940;DHT22;15275;51.716;14.324;2023-07-31T08:29:08;22.80;78.30
27940;DHT22;15275;51.716;14.324;2023-07-31T08:31:34;22.80;78.30
27940;DHT22;15275;51.716;14.324;2023-07-31T08:34:00;22.90;78.40
27940;DHT22;15275;51.716;14.324;2023-07-31T08:36:26;22.90;78.40
27940;DHT22;15275;51.716;14.324;2023-07-31T08:38:52;22.90;78.20
27940;DHT22;15275;51.716;14.324;2023-07-31T08:41:18;23.00;78.40
27940;DHT22;15275;51.716;14.324;2023-07-31T08:43:47;23.10;78.50
27940;DHT22;15275;51.716;14.324;2023-07-31T08:46:15;23.20;78.50
27940;DHT22;15275;51.716;14.324;2023-07-31T08:48:42;23.30;78.40
27940;DHT22;15275;51.716;14.324;2023-07-31T08:51:08;23.40;77.90
27940;DHT22;15275;51.716;14.324;2023-07-31T08:53:34;23.50;77.70
27940;DHT22;15275;51.716;14.324;2023-07-31T08:56:01;23.50;77.80
27940;DHT22;15275;51.716;14.324;2023-07-31T08:58:30;23.60;77.80
27940;DHT22;15275;51.716;14.324;2023-07-31T09:00:58;23.70;77.50
27940;DHT22;15275;51.716;14.324;2023-07-31T09:03:26;23.80;77.40
27940;DHT22;15275;51.716;14.324;2023-07-31T09:05:53;23.90;77.20
27940;DHT22;15275;51.716;14.324;2023-07-31T09:08:22;23.90;76.70
27940;DHT22;15275;51.716;14.324;2023-07-31T09:10:48;24.00;77.00
27940;DHT22;15275;51.716;14.324;2023-07-31T09:13:17;24.10;76.80
27940;DHT22;15275;51.716;14.324;2023-07-31T09:15:45;24.20;76.70
27940;DHT22;15275;51.716;14.324;2023-07-31T09:18:11;24.20;76.40
27940;DHT22;15275;51.716;14.324;2023-07-31T09:20:38;24.30;76.30
27940;DHT22;15275;51.716;14.324;2023-07-31T09:23:12;24.30;76.20
27940;DHT22;15275;51.716;14.324;2023-07-31T09:25:40;24.40;75.30
27940;DHT22;15275;51.716;14.324;2023-07-31T09:28:10;24.50;76.30
27940;DHT22;15275;51.716;14.324;2023-07-31T09:30:54;24.60;76.30
27940;DHT22;15275;51.716;14.324;2023-07-31T09:33:21;24.70;74.80
27940;DHT22;15275;51.716;14.324;2023-07-31T09:35:47;24.80;76.10
27940;DHT22;15275;51.716;14.324;2023-07-31T09:38:16;24.80;75.80
27940;DHT22;15275;51.716;14.324;2023-07-31T09:40:51;24.90;75.80
27940;DHT22;15275;51.716;14.324;2023-07-31T09:43:18;25.00;74.20
27940;DHT22;15275;51.716;14.324;2023-07-31T09:45:45;25.10;74.60
27940;DHT22;15275;51.716;14.324;2023-07-31T09:48:15;25.10;74.80
27940;DHT22;15275;51.716;14.324;2023-07-31T09:50:43;25.20;74.60
27940;DHT22;15275;51.716;14.324;2023-07-31T09:53:10;25.20;74.10
27940;DHT22;15275;51.716;14.324;2023-07-31T09:55:37;25.30;74.20
27940;DHT22;15275;51.716;14.324;2023-07-31T09:58:05;25.30;73.90
27940;DHT22;15275;51.716;14.324;2023-07-31T10:00:32;25.30;73.80
27940;DHT22;15275;51.716;14.324;2023-07-31T10:03:00;25.40;73.60
27940;DHT22;15275;51.716;14.324;2023-07-31T10:05:33;25.50;73.20
27940;DHT22;15275;51.716;14.324;2023-07-31T10:08:01;25.50;72.90
27940;DHT22;15275;51.716;14.324;2023-07-31T10:10:27;25.60;74.40
27940;DHT22;15275;51.716;14.324;2023-07-31T10:12:53;25.70;73.60
27940;DHT22;15275;51.716;14.324;2023-07-31T10:15:20;25.90;72.90
27940;DHT22;15275;51.716;14.324;2023-07-31T10:17:50;25.90;72.40
27940;DHT22;15275;51.716;14.324;2023-07-31T10:20:16;26.00;71.30
27940;DHT22;15275;51.716;14.324;2023-07-31T10:22:46;26.10;72.00
27940;DHT22;15275;51.716;14.324;2023-07-31T10:25:12;26.10;70.40
27940;DHT22;15275;51.716;14.324;2023-07-31T10:27:39;26.20;71.40
27940;DHT22;15275;51.716;14.324;2023-07-31T10:30:14;26.20;71.50
27940;DHT22;15275;51.716;14.324;2023-07-31T10:32:41;26.30;70.40
27940;DHT22;15275;51.716;14.324;2023-07-31T10:35:09;26.40;71.20
27940;DHT22;15275;51.716;14.324;2023-07-31T10:37:42;26.40;70.80
27940;DHT22;15275;51.716;14.324;2023-07-31T10:40:19;26.40;68.30
27940;DHT22;15275;51.716;14.324;2023-07-31T10:42:57;26.30;68.20
27940;DHT22;15275;51.716;14.324;2023-07-31T10:45:36;26.20;69.60
27940;DHT22;15275;51.716;14.324;2023-07-31T10:48:13;26.10;68.10
27940;DHT22;15275;51.716;14.324;2023-07-31T10:50:51;26.00;69.00
27940;DHT22;15275;51.716;14.324;2023-07-31T10:53:29;26.00;68.00
27940;DHT22;15275;51.716;14.324;2023-07-31T10:56:04;25.90;69.70
27940;DHT22;15275;51.716;14.324;2023-07-31T10:58:33;25.80;68.90
27940;DHT22;15275;51.716;14.324;2023-07-31T11:01:05;25.80;70.60
27940;DHT22;15275;51.716;14.324;2023-07-31T11:03:43;25.70;69.90
27940;DHT22;15275;51.716;14.324;2023-07-31T11:06:15;25.70;68.30
27940;DHT22;15275;51.716;14.324;2023-07-31T11:08:46;25.70;70.80
27940;DHT22;15275;51.716;14.324;2023-07-31T11:11:15;25.70;69.40
27940;DHT22;15275;51.716;14.324;2023-07-31T11:13:50;25.70;70.70
27940;DHT22;15275;51.716;14.324;2023-07-31T11:16:22;25.70;69.80
27940;DHT22;15275;51.716;14.324;2023-07-31T11:18:50;25.70;71.00
27940;DHT22;15275;51.716;14.324;2023-07-31T11:21:24;25.70;70.70
27940;DHT22;15275;51.716;14.324;2023-07-31T11:23:52;25.70;68.40
27940;DHT22;15275;51.716;14.324;2023-07-31T11:26:20;25.70;70.70
27940;DHT22;15275;51.716;14.324;2023-07-31T11:28:49;25.70;71.30
27940;DHT22;15275;51.716;14.324;2023-07-31T11:31:16;25.70;70.50
27940;DHT22;15275;51.716;14.324;2023-07-31T11:33:43;25.70;71.00
27940;DHT22;15275;51.716;14.324;2023-07-31T11:36:20;25.80;70.90
27940;DHT22;15275;51.716;14.324;2023-07-31T11:38:47;25.80;68.30
27940;DHT22;15275;51.716;14.324;2023-07-31T11:41:16;25.80;71.10
27940;DHT22;15275;51.716;14.324;2023-07-31T11:43:42;25.90;70.20
27940;DHT22;15275;51.716;14.324;2023-07-31T11:46:09;25.90;71.00
27940;DHT22;15275;51.716;14.324;2023-07-31T11:48:36;26.00;70.70
27940;DHT22;15275;51.716;14.324;2023-07-31T11:51:04;26.00;70.50
27940;DHT22;15275;51.716;14.324;2023-07-31T11:53:33;26.00;70.60
27940;DHT22;15275;51.716;14.324;2023-07-31T11:56:37;26.10;70.70
27940;DHT22;15275;51.716;14.324;2023-07-31T11:59:02;26.10;71.10
27940;DHT22;15275;51.716;14.324;2023-07-31T12:01:31;26.20;71.00
27940;DHT22;15275;51.716;14.324;2023-07-31T12:03:57;26.20;70.60
27940;DHT22;15275;51.716;14.324;2023-07-31T12:06:33;26.30;70.30
27940;DHT22;15275;51.716;14.324;2023-07-31T12:09:03;26.30;67.70
27940;DHT22;15275;51.716;14.324;2023-07-31T12:11:30;26.40;70.30
27940;DHT22;15275;51.716;14.324;2023-07-31T12:13:56;26.40;70.30
27940;DHT22;15275;51.716;14.324;2023-07-31T12:16:26;26.50;70.00
27940;DHT22;15275;51.716;14.324;2023-07-31T12:18:53;26.60;69.00
27940;DHT22;15275;51.716;14.324;2023-07-31T12:21:19;26.70;69.60
27940;DHT22;15275;51.716;14.324;2023-07-31T12:23:45;26.80;69.40
27940;DHT22;15275;51.716;14.324;2023-07-31T12:26:16;26.90;69.10
27940;DHT22;15275;51.716;14.324;2023-07-31T12:28:50;26.90;67.80
27940;DHT22;15275;51.716;14.324;2023-07-31T12:31:17;27.00;66.90
27940;DHT22;15275;51.716;14.324;2023-07-31T12:33:45;27.00;67.50
27940;DHT22;15275;51.716;14.324;2023-07-31T12:36:16;27.10;70.40
27940;DHT22;15275;51.716;14.324;2023-07-31T12:38:44;27.20;68.60
27940;DHT22;15275;51.716;14.324;2023-07-31T12:41:10;27.20;69.00
27940;DHT22;15275;51.716;14.324;2023-07-31T12:43:39;27.30;68.80
27940;DHT22;15275;51.716;14.324;2023-07-31T12:46:07;27.30;68.60
27940;DHT22;15275;51.716;14.324;2023-07-31T12:48:34;27.40;68.60
27940;DHT22;15275;51.716;14.324;2023-07-31T12:51:00;27.40;68.60
27940;DHT22;15275;51.716;14.324;2023-07-31T12:53:27;27.40;68.30
27940;DHT22;15275;51.716;14.324;2023-07-31T12:55:55;27.40;68.00
27940;DHT22;15275;51.716;14.324;2023-07-31T12:58:21;27.40;67.80
27940;DHT22;15275;51.716;14.324;2023-07-31T13:00:47;27.30;68.00
27940;DHT22;15275;51.716;14.324;2023-07-31T13:03:13;27.30;68.20
27940;DHT22;15275;51.716;14.324;2023-07-31T13:05:39;27.30;68.00
27940;DHT22;15275;51.716;14.324;2023-07-31T13:08:04;27.30;68.10
27940;DHT22;15275;51.716;14.324;2023-07-31T13:10:30;27.40;67.70
27940;DHT22;15275;51.716;14.324;2023-07-31T13:12:56;27.40;67.90
27940;DHT22;15275;51.716;14.324;2023-07-31T13:15:23;27.40;67.80
27940;DHT22;15275;51.716;14.324;2023-07-31T13:17:49;27.40;67.20
27940;DHT22;15275;51.716;14.324;2023-07-31T13:20:15;27.40;68.00
27940;DHT22;15275;51.716;14.324;2023-07-31T13:22:40;27.30;67.40
27940;DHT22;15275;51.716;14.324;2023-07-31T13:25:07;27.30;67.40
27940;DHT22;15275;51.716;14.324;2023-07-31T13:27:33;27.30;67.60
27940;DHT22;15275;51.716;14.324;2023-07-31T13:29:59;27.30;68.10
27940;DHT22;15275;51.716;14.324;2023-07-31T13:32:25;27.20;68.20
27940;DHT22;15275;51.716;14.324;2023-07-31T13:34:51;27.20;67.70
27940;DHT22;15275;51.716;14.324;2023-07-31T13:37:17;27.20;68.20
27940;DHT22;15275;51.716;14.324;2023-07-31T13:39:43;27.20;68.00
27940;DHT22;15275;51.716;14.324;2023-07-31T13:42:09;27.20;68.10
27940;DHT22;15275;51.716;14.324;2023-07-31T13:44:38;27.20;68.40
27940;DHT22;15275;51.716;14.324;2023-07-31T13:47:04;27.20;68.70
27940;DHT22;15275;51.716;14.324;2023-07-31T13:49:30;27.30;68.50
27940;DHT22;15275;51.716;14.324;2023-07-31T13:51:57;27.30;68.50
27940;DHT22;15275;51.716;14.324;2023-07-31T13:54:23;27.30;68.20
27940;DHT22;15275;51.716;14.324;2023-07-31T13:56:49;27.30;68.30
27940;DHT22;15275;51.716;14.324;2023-07-31T13:59:15;27.30;68.40
27940;DHT22;15275;51.716;14.324;2023-07-31T14:01:42;27.30;68.50
27940;DHT22;15275;51.716;14.324;2023-07-31T14:04:08;27.30;68.60
27940;DHT22;15275;51.716;14.324;2023-07-31T14:06:34;27.30;68.70
27940;DHT22;15275;51.716;14.324;2023-07-31T14:09:00;27.30;68.30
27940;DHT22;15275;51.716;14.324;2023-07-31T14:11:27;27.20;68.70
27940;DHT22;15275;51.716;14.324;2023-07-31T14:13:53;27.30;68.50
27940;DHT22;15275;51.716;14.324;2023-07-31T14:16:19;27.30;68.30
27940;DHT22;15275;51.716;14.324;2023-07-31T14:18:44;27.30;68.90
27940;DHT22;15275;51.716;14.324;2023-07-31T14:21:13;27.30;69.00
27940;DHT22;15275;51.716;14.324;2023-07-31T14:23:39;27.30;68.60
27940;DHT22;15275;51.716;14.324;2023-07-31T14:26:05;27.40;68.90
27940;DHT22;15275;51.716;14.324;2023-07-31T14:28:32;27.50;69.50
27940;DHT22;15275;51.716;14.324;2023-07-31T14:30:58;27.60;69.00
27940;DHT22;15275;51.716;14.324;2023-07-31T14:33:23;27.70;68.90
27940;DHT22;15275;51.716;14.324;2023-07-31T14:35:49;27.80;68.80
27940;DHT22;15275;51.716;14.324;2023-07-31T14:38:15;27.80;68.00
27940;DHT22;15275;51.716;14.324;2023-07-31T14:40:41;27.80;68.40
27940;DHT22;15275;51.716;14.324;2023-07-31T14:43:07;27.80;68.30
27940;DHT22;15275;51.716;14.324;2023-07-31T14:45:33;27.90;68.10
27940;DHT22;15275;51.716;14.324;2023-07-31T14:47:59;27.90;68.20
27940;DHT22;15275;51.716;14.324;2023-07-31T14:50:25;28.00;68.00
27940;DHT22;15275;51.716;14.324;2023-07-31T14:52:51;28.00;67.70
27940;DHT22;15275;51.716;14.324;2023-07-31T14:55:21;28.00;67.60
27940;DHT22;15275;51.716;14.324;2023-07-31T14:57:46;28.00;66.40
27940;DHT22;15275;51.716;14.324;2023-07-31T15:00:13;28.00;67.00
27940;DHT22;15275;51.716;14.324;2023-07-31T15:02:40;28.00;66.80
27940;DHT22;15275;51.716;14.324;2023-07-31T15:05:06;28.00;66.20
27940;DHT22;15275;51.716;14.324;2023-07-31T15:07:33;28.00;66.50
27940;DHT22;15275;51.716;14.324;2023-07-31T15:10:00;27.90;66.50
27940;DHT22;15275;51.716;14.324;2023-07-31T15:12:27;27.90;66.00
27940;DHT22;15275;51.716;14.324;2023-07-31T15:14:53;27.80;66.30
27940;DHT22;15275;51.716;14.324;2023-07-31T15:17:19;27.80;66.60
27940;DHT22;15275;51.716;14.324;2023-07-31T15:19:45;27.80;67.30
27940;DHT22;15275;51.716;14.324;2023-07-31T15:22:11;27.80;67.50